Impacts METAR Board
IDs:

KMCO - Orlando Intl, FL, US

Updated at: 0100 UTC 28 May 2018
Potential Impact None Slight Moderate High
Time 27/13Z 27/14Z 27/15Z 27/16Z 27/17Z 27/18Z 27/19Z 27/20Z 27/21Z 27/22Z 27/23Z 28/00Z 28/01Z
Temp75 77 78 79 80 82 83 81 80 78 79 79 78
Dewpt73 74 73 75 72 73 73 73 73 73 74 74 75
Altim29.81 29.81 29.81 29.81 29.79 29.77 29.75 29.75 29.75 29.76 29.76 29.77 29.79
VIS10 10 1 10 10 10 10 10 10 10 10 10 10
CIG41 16 18 22 25 43 34 34 45 45 15 55 28
CoverOVCOVCOVCBKNOVCOVCBKNOVCOVCOVCOVCBKNBKN
FltCatVFRMVFRIFRMVFRMVFRVFRVFRVFRVFRVFRMVFRVFRMVFR
WX---RA-RA BR--------------------
WDir120110140130140140130150150150150140130
WSpd12 13 19 15 12 17 21 13 15 13 11 11 9
WGst18 -- 28 24 26 -- 27 -- 21 21 -- -- --
Raw hourly METARs
KMCO 271253Z 12012G18KT 10SM SCT014 BKN041 OVC070 24/23 A2981 RMK AO2 SLP094 T02390228
KMCO 271353Z 11013KT 10SM -RA BKN016 BKN036 OVC065 25/23 A2981 RMK AO2 RAB51 SLP092 P0000 T02500233
KMCO 271454Z 14019G28KT 1SM R35L/4000VP6000FT -RA BR BKN018 OVC025 26/23 A2981 RMK AO2 PK WND 15026/1454 RAB54 P0000 T02560228
KMCO 271553Z 13015G24KT 10SM SCT016 BKN022 BKN110 26/24 A2981 RMK AO2 PK WND 15026/1454 RAB1454E36 SLP092 P0029 T02610239
KMCO 271653Z 14012G26KT 10SM BKN025 BKN043 OVC060 27/22 A2979 RMK AO2 PK WND 12028/1638 SLP087 T02670222
KMCO 271753Z 14017KT 10SM SCT025 BKN043 OVC110 28/23 A2977 RMK AO2 PK WND 12026/1709 SLP080 60029 T02780228 10283 20233 58013
KMCO 271853Z 13021G27KT 10SM SCT025 BKN034 BKN250 28/23 A2975 RMK AO2 PK WND 13028/1800 SLP073 T02830228
KMCO 271953Z 15013KT 10SM SCT025 BKN034 OVC045 27/23 A2975 RMK AO2 PK WND 15026/1903 SLP074 T02720228
KMCO 272053Z 15015G21KT 10SM SCT025 BKN045 OVC170 27/23 A2975 RMK AO2 RAB03E12 SLP072 P0000 60000 T02670228 56007
KMCO 272153Z 15013G21KT 10SM SCT016 BKN045 BKN080 OVC200 26/23 A2976 RMK AO2 SLP075 T02560228
KMCO 272253Z 15011KT 10SM BKN015 OVC021 26/23 A2976 RMK AO2 SLP075 T02610233
KMCO 272353Z 14011KT 10SM SCT017 BKN055 BKN120 BKN250 26/23 A2977 RMK AO2 SLP078 60000 T02610233 10289 20256 53006
KMCO 280053Z 13009KT 10SM SCT015 BKN028 BKN250 26/24 A2979 RMK AO2 SLP087 T02560239



Page loaded:  01:34 UTC  |   06:34 PM Pacific  |   07:34 PM Mountain  |   08:34 PM Central  |   09:34 PM Eastern

 

ADVISORIES

FORECASTS

FORECASTS

OBSERVATIONS

USER TOOLS

ABOUT US